Česky Dansk Deutsch English Español Suomi Français Magyar Italiano Nederlands norsk Polski Português svenska Türkçe

 

Het Weer

Laupheim (Duitsland)

22:20, 22 augustus 2016 (GMT)

NWNNE
WE
SWSSE
Home            
Laupheim Memmingen Friedrichshafen Messstetten Lechfeld Stuttgart-Echterdingen Landsberg Augsburg Konstanz Altenstadt Saint Gallen-Altenrhein Hohenems-Dornbirn Fuerstenfeldbruck Oberpfaffenhofen Donaueschingen / Villingen Neuburg / Donau Ingolstadt Zurich-Kloten Niederstetten Ansbach / Katterbach Munchen Roth Illesheim

Om een weerknop op uw website of weblog te plaatsen, copieer onderstaande code en plak die in uw pagina. In het eerste vakje staat HTML-code, in het tweede vakje UBB-code.


Add to Google

Details

Wind speed:1 bf, 1 kn, 0.5 m/s, 1.2 miles/h, 1.9 km/h
Wind direction:Variable
Visibility:Greater than 10000 m, 10 km, 32800 ft, 6.2 miles
Clouds:Ein wenig bewölkt at 16000 ft, 4877 m
Temperature:13°C, 55°F
Dew-point:11°C, 52°F
Atmospheric pressure:1030 hPa, 772.6 mmHg, 30.42 inHg, 1.017 atm
Relative humidity:87.6 %
METAR:ETHL 222220Z VRB01KT 9999 FEW160 13/11 Q1030 BLU+

Snelkoppelingen

Actuele weersinformatie van de hele wereld. Voeg locaties toe met het plus (+) symbool. Deze snelkoppelingen kunnen worden toegevoegd aan Google.

Lid van de Technetium groep

website free tracking
StatCounter NetStat W3C Validator

29-06-2022 11:52:01
astro.technetium.be money.technetium.be phote.technetium.be tafeltennistafel.technetium.be www.ligfiets.net